EGXZ - Topcliffe Royal Air Force Base
Distance from station: E 5mi, 14km
Updated: 06/20/2018 12:50pm
Partly Cloudy
Partly Cloudy
 Wind from NW
Wind: NW 14 mph , 22 km/h
Temperature: 57°F , 14°C
Dew Point: 43°F , 6°C
Humidity: 59%
Barometer: 30.06 inHg , 1018 hPa
Clouds: Partly Cloudy
Visibility: 6 miles , 10 km
Cloud details: Partly Cloudy 17000 ft
2018/06/20 19:50 EGXZ 201950Z AUTO 31012KT 9999 SCT170/// 14/06 Q1018